sensor_id;sensor_type;location;lat;lon;timestamp;pressure;altitude;pressure_sealevel;temperature;humidity
41044;BME280;51680;49.806;18.774;2024-03-29T00:02:39;96050.34;;;10.36;76.87
41044;BME280;51680;49.806;18.774;2024-03-29T00:05:41;96062.81;;;10.32;76.69
41044;BME280;51680;49.806;18.774;2024-03-29T00:08:42;96067.91;;;10.34;76.41
41044;BME280;51680;49.806;18.774;2024-03-29T00:11:43;96075.44;;;10.27;77.22
41044;BME280;51680;49.806;18.774;2024-03-29T00:14:44;96080.44;;;10.19;77.10
41044;BME280;51680;49.806;18.774;2024-03-29T00:17:45;96089.50;;;10.15;77.21
41044;BME280;51680;49.806;18.774;2024-03-29T00:20:47;96104.00;;;10.08;76.84
41044;BME280;51680;49.806;18.774;2024-03-29T00:23:48;96097.59;;;10.01;77.11
41044;BME280;51680;49.806;18.774;2024-03-29T00:26:49;96097.69;;;9.79;77.82
41044;BME280;51680;49.806;18.774;2024-03-29T00:29:50;96093.97;;;9.61;78.67
41044;BME280;51680;49.806;18.774;2024-03-29T00:32:51;96097.06;;;9.55;78.69
41044;BME280;51680;49.806;18.774;2024-03-29T00:35:53;96096.63;;;9.50;78.61
41044;BME280;51680;49.806;18.774;2024-03-29T00:38:54;96101.72;;;9.52;78.44
41044;BME280;51680;49.806;18.774;2024-03-29T00:41:55;96106.81;;;9.53;77.79
41044;BME280;51680;49.806;18.774;2024-03-29T00:44:56;96118.16;;;9.52;77.23
41044;BME280;51680;49.806;18.774;2024-03-29T00:47:57;96115.34;;;9.44;77.99
41044;BME280;51680;49.806;18.774;2024-03-29T00:50:59;96128.38;;;9.44;77.82
41044;BME280;51680;49.806;18.774;2024-03-29T00:54:00;96129.09;;;9.35;77.93
41044;BME280;51680;49.806;18.774;2024-03-29T00:57:01;96144.72;;;9.35;77.33
41044;BME280;51680;49.806;18.774;2024-03-29T01:00:03;96155.88;;;9.26;77.99
41044;BME280;51680;49.806;18.774;2024-03-29T01:03:04;96160.38;;;9.24;77.70
41044;BME280;51680;49.806;18.774;2024-03-29T01:06:07;96169.25;;;9.22;77.44
41044;BME280;51680;49.806;18.774;2024-03-29T01:09:07;96175.28;;;9.11;78.00
41044;BME280;51680;49.806;18.774;2024-03-29T01:12:09;96193.03;;;9.06;77.85
41044;BME280;51680;49.806;18.774;2024-03-29T01:15:10;96200.84;;;9.06;77.52
41044;BME280;51680;49.806;18.774;2024-03-29T01:18:11;96202.25;;;8.99;77.70
41044;BME280;51680;49.806;18.774;2024-03-29T01:21:13;96218.22;;;8.95;78.05
41044;BME280;51680;49.806;18.774;2024-03-29T01:24:14;96231.34;;;8.93;77.65
41044;BME280;51680;49.806;18.774;2024-03-29T01:27:15;96237.81;;;8.88;77.58
41044;BME280;51680;49.806;18.774;2024-03-29T01:30:16;96242.44;;;8.84;77.48
41044;BME280;51680;49.806;18.774;2024-03-29T01:33:17;96248.81;;;8.80;77.45
41044;BME280;51680;49.806;18.774;2024-03-29T01:36:19;96259.81;;;8.73;77.91
41044;BME280;51680;49.806;18.774;2024-03-29T01:39:20;96268.19;;;8.65;78.30
41044;BME280;51680;49.806;18.774;2024-03-29T01:42:22;96278.25;;;8.70;78.28
41044;BME280;51680;49.806;18.774;2024-03-29T01:45:23;96283.22;;;8.73;77.35
41044;BME280;51680;49.806;18.774;2024-03-29T01:48:25;96278.59;;;8.65;77.62
41044;BME280;51680;49.806;18.774;2024-03-29T01:51:29;96289.00;;;8.65;77.49
41044;BME280;51680;49.806;18.774;2024-03-29T01:54:31;96294.13;;;8.43;81.06
41044;BME280;51680;49.806;18.774;2024-03-29T01:57:34;96305.03;;;8.48;77.57
41044;BME280;51680;49.806;18.774;2024-03-29T02:00:36;96314.25;;;8.52;77.34
41044;BME280;51680;49.806;18.774;2024-03-29T02:03:41;96325.56;;;8.51;77.39
41044;BME280;51680;49.806;18.774;2024-03-29T02:06:44;96331.97;;;8.47;77.96
41044;BME280;51680;49.806;18.774;2024-03-29T02:09:47;96333.84;;;8.45;77.51
41044;BME280;51680;49.806;18.774;2024-03-29T02:12:49;96336.53;;;8.44;77.62
41044;BME280;51680;49.806;18.774;2024-03-29T02:15:51;96342.38;;;8.47;76.78
41044;BME280;51680;49.806;18.774;2024-03-29T02:18:53;96338.59;;;8.51;76.63
41044;BME280;51680;49.806;18.774;2024-03-29T02:21:59;96339.03;;;8.45;77.32
41044;BME280;51680;49.806;18.774;2024-03-29T02:25:03;96349.66;;;8.42;76.98
41044;BME280;51680;49.806;18.774;2024-03-29T02:28:06;96356.75;;;8.40;77.22
41044;BME280;51680;49.806;18.774;2024-03-29T02:31:08;96359.69;;;8.36;77.32
41044;BME280;51680;49.806;18.774;2024-03-29T02:34:10;96358.84;;;8.35;77.19
41044;BME280;51680;49.806;18.774;2024-03-29T02:37:12;96366.44;;;8.38;76.70
41044;BME280;51680;49.806;18.774;2024-03-29T02:40:15;96370.09;;;8.36;76.74
41044;BME280;51680;49.806;18.774;2024-03-29T02:43:17;96382.94;;;8.37;76.27
41044;BME280;51680;49.806;18.774;2024-03-29T02:46:19;96391.25;;;8.42;76.10
41044;BME280;51680;49.806;18.774;2024-03-29T02:49:21;96387.72;;;8.43;76.03
41044;BME280;51680;49.806;18.774;2024-03-29T02:52:22;96377.09;;;8.46;75.55
41044;BME280;51680;49.806;18.774;2024-03-29T02:55:25;96385.38;;;8.51;75.53
41044;BME280;51680;49.806;18.774;2024-03-29T02:58:27;96384.69;;;8.49;75.35
41044;BME280;51680;49.806;18.774;2024-03-29T03:01:28;96385.63;;;8.48;74.94
41044;BME280;51680;49.806;18.774;2024-03-29T03:04:30;96384.56;;;8.51;74.66
41044;BME280;51680;49.806;18.774;2024-03-29T03:07:32;96386.22;;;8.52;74.45
41044;BME280;51680;49.806;18.774;2024-03-29T03:10:52;96383.53;;;8.53;74.35
41044;BME280;51680;49.806;18.774;2024-03-29T03:13:59;96388.50;;;8.56;74.28
41044;BME280;51680;49.806;18.774;2024-03-29T03:17:01;96379.13;;;8.54;74.11
41044;BME280;51680;49.806;18.774;2024-03-29T03:20:04;96375.97;;;8.61;73.98
41044;BME280;51680;49.806;18.774;2024-03-29T03:23:05;96375.66;;;8.66;73.44
41044;BME280;51680;49.806;18.774;2024-03-29T03:26:08;96369.31;;;8.70;73.19
41044;BME280;51680;49.806;18.774;2024-03-29T03:29:09;96379.22;;;8.65;73.41
41044;BME280;51680;49.806;18.774;2024-03-29T03:32:11;96387.63;;;8.68;73.40
41044;BME280;51680;49.806;18.774;2024-03-29T03:35:12;96381.31;;;8.60;73.07
41044;BME280;51680;49.806;18.774;2024-03-29T03:38:14;96387.34;;;8.60;72.80
41044;BME280;51680;49.806;18.774;2024-03-29T03:41:17;96383.53;;;8.53;72.81
41044;BME280;51680;49.806;18.774;2024-03-29T03:44:19;96382.69;;;8.53;73.09
41044;BME280;51680;49.806;18.774;2024-03-29T03:47:22;96388.13;;;8.50;72.89
41044;BME280;51680;49.806;18.774;2024-03-29T03:50:23;96375.13;;;8.50;72.74
41044;BME280;51680;49.806;18.774;2024-03-29T03:53:25;96383.75;;;8.50;72.20
41044;BME280;51680;49.806;18.774;2024-03-29T03:56:27;96393.75;;;8.44;72.18
41044;BME280;51680;49.806;18.774;2024-03-29T03:59:29;96387.72;;;8.43;72.07
41044;BME280;51680;49.806;18.774;2024-03-29T04:02:30;96403.00;;;8.48;72.05
41044;BME280;51680;49.806;18.774;2024-03-29T04:05:32;96396.63;;;8.52;71.96
41044;BME280;51680;49.806;18.774;2024-03-29T04:08:33;96398.91;;;8.56;71.28
41044;BME280;51680;49.806;18.774;2024-03-29T04:11:37;96399.53;;;8.60;70.90
41044;BME280;51680;49.806;18.774;2024-03-29T04:14:38;96398.34;;;8.64;70.39
41044;BME280;51680;49.806;18.774;2024-03-29T04:17:40;96402.22;;;8.58;70.50
41044;BME280;51680;49.806;18.774;2024-03-29T04:20:41;96409.28;;;8.56;70.71
41044;BME280;51680;49.806;18.774;2024-03-29T04:23:43;96414.81;;;8.28;71.73
41044;BME280;51680;49.806;18.774;2024-03-29T04:26:45;96435.41;;;8.06;72.83
41044;BME280;51680;49.806;18.774;2024-03-29T04:29:50;96449.22;;;7.94;73.20
41044;BME280;51680;49.806;18.774;2024-03-29T04:32:51;96456.22;;;7.81;74.56
41044;BME280;51680;49.806;18.774;2024-03-29T04:35:54;96457.44;;;7.88;73.68
41044;BME280;51680;49.806;18.774;2024-03-29T04:38:56;96454.22;;;7.97;73.67
41044;BME280;51680;49.806;18.774;2024-03-29T04:41:59;96467.09;;;8.11;73.91
41044;BME280;51680;49.806;18.774;2024-03-29T04:45:01;96467.63;;;8.29;73.34
41044;BME280;51680;49.806;18.774;2024-03-29T04:48:05;96461.59;;;8.41;72.99
41044;BME280;51680;49.806;18.774;2024-03-29T04:51:07;96476.94;;;8.44;73.46
41044;BME280;51680;49.806;18.774;2024-03-29T04:54:09;96477.94;;;8.66;72.78
41044;BME280;51680;49.806;18.774;2024-03-29T04:57:12;96478.06;;;8.88;71.80
41044;BME280;51680;49.806;18.774;2024-03-29T05:00:15;96471.09;;;9.12;70.75
41044;BME280;51680;49.806;18.774;2024-03-29T05:03:17;96472.97;;;9.45;69.91
41044;BME280;51680;49.806;18.774;2024-03-29T05:06:19;96459.94;;;9.90;68.22
41044;BME280;51680;49.806;18.774;2024-03-29T05:09:21;96472.53;;;10.51;66.74
41044;BME280;51680;49.806;18.774;2024-03-29T05:12:24;96466.16;;;10.98;64.27
41044;BME280;51680;49.806;18.774;2024-03-29T05:15:27;96451.09;;;11.53;62.28
41044;BME280;51680;49.806;18.774;2024-03-29T05:18:28;96449.16;;;11.66;62.20
41044;BME280;51680;49.806;18.774;2024-03-29T05:21:30;96444.41;;;12.01;60.05
41044;BME280;51680;49.806;18.774;2024-03-29T05:24:32;96464.53;;;12.01;59.56
41044;BME280;51680;49.806;18.774;2024-03-29T05:27:35;96461.19;;;12.59;58.49
41044;BME280;51680;49.806;18.774;2024-03-29T05:30:37;96473.19;;;13.10;56.61
41044;BME280;51680;49.806;18.774;2024-03-29T05:33:39;96480.41;;;13.46;55.77
41044;BME280;51680;49.806;18.774;2024-03-29T05:36:41;96487.56;;;13.92;54.72
41044;BME280;51680;49.806;18.774;2024-03-29T05:39:44;96491.72;;;13.75;54.70
41044;BME280;51680;49.806;18.774;2024-03-29T05:42:49;96493.88;;;14.08;54.21
41044;BME280;51680;49.806;18.774;2024-03-29T05:45:52;96520.53;;;13.37;54.48
41044;BME280;51680;49.806;18.774;2024-03-29T05:48:54;96506.63;;;13.46;55.11
41044;BME280;51680;49.806;18.774;2024-03-29T05:51:56;96492.97;;;13.71;54.46
41044;BME280;51680;49.806;18.774;2024-03-29T05:54:58;96475.97;;;13.28;55.20
41044;BME280;51680;49.806;18.774;2024-03-29T05:58:06;96481.94;;;12.41;58.00
41044;BME280;51680;49.806;18.774;2024-03-29T06:01:08;96476.34;;;12.55;57.44
41044;BME280;51680;49.806;18.774;2024-03-29T06:04:10;96484.94;;;13.35;54.79
41044;BME280;51680;49.806;18.774;2024-03-29T06:07:16;96483.16;;;13.54;54.93
41044;BME280;51680;49.806;18.774;2024-03-29T06:10:18;96489.16;;;14.21;54.05
41044;BME280;51680;49.806;18.774;2024-03-29T06:13:21;96477.03;;;14.01;53.25
41044;BME280;51680;49.806;18.774;2024-03-29T06:16:51;96471.16;;;13.42;53.88
41044;BME280;51680;49.806;18.774;2024-03-29T06:20:18;96468.78;;;13.20;55.41
41044;BME280;51680;49.806;18.774;2024-03-29T06:23:20;96479.56;;;13.17;54.31
41044;BME280;51680;49.806;18.774;2024-03-29T06:26:22;96471.53;;;13.85;53.56
41044;BME280;51680;49.806;18.774;2024-03-29T06:29:25;96469.88;;;14.49;51.34
41044;BME280;51680;49.806;18.774;2024-03-29T06:32:27;96478.91;;;14.74;50.00
41044;BME280;51680;49.806;18.774;2024-03-29T06:35:29;96471.69;;;15.47;49.73
41044;BME280;51680;49.806;18.774;2024-03-29T06:38:31;96474.84;;;15.06;50.20
41044;BME280;51680;49.806;18.774;2024-03-29T06:41:33;96478.53;;;15.13;49.86
41044;BME280;51680;49.806;18.774;2024-03-29T06:44:36;96477.00;;;15.55;49.24
41044;BME280;51680;49.806;18.774;2024-03-29T06:47:38;96489.13;;;15.21;48.73
41044;BME280;51680;49.806;18.774;2024-03-29T06:50:40;96493.47;;;15.75;49.39
41044;BME280;51680;49.806;18.774;2024-03-29T06:53:42;96488.03;;;16.62;47.52
41044;BME280;51680;49.806;18.774;2024-03-29T06:56:44;96486.22;;;16.20;47.03
41044;BME280;51680;49.806;18.774;2024-03-29T06:59:48;96491.38;;;16.47;47.37
41044;BME280;51680;49.806;18.774;2024-03-29T07:02:49;96484.50;;;16.28;47.14
41044;BME280;51680;49.806;18.774;2024-03-29T07:05:51;96480.47;;;16.16;46.97
41044;BME280;51680;49.806;18.774;2024-03-29T07:08:53;96475.16;;;17.42;45.72
41044;BME280;51680;49.806;18.774;2024-03-29T07:11:55;96459.88;;;18.73;42.77
41044;BME280;51680;49.806;18.774;2024-03-29T07:14:59;96457.34;;;18.08;41.50
41044;BME280;51680;49.806;18.774;2024-03-29T07:18:02;96466.59;;;18.83;41.60
41044;BME280;51680;49.806;18.774;2024-03-29T07:21:04;96479.09;;;18.51;41.04
41044;BME280;51680;49.806;18.774;2024-03-29T07:24:06;96475.25;;;18.69;39.96
41044;BME280;51680;49.806;18.774;2024-03-29T07:27:08;96484.16;;;19.15;41.34
41044;BME280;51680;49.806;18.774;2024-03-29T07:30:12;96486.41;;;18.24;40.48
41044;BME280;51680;49.806;18.774;2024-03-29T07:33:15;96497.28;;;18.21;41.40
41044;BME280;51680;49.806;18.774;2024-03-29T07:36:16;96503.41;;;18.46;41.87
41044;BME280;51680;49.806;18.774;2024-03-29T07:39:18;96503.53;;;18.69;41.52
41044;BME280;51680;49.806;18.774;2024-03-29T07:42:20;96512.22;;;19.40;39.64
41044;BME280;51680;49.806;18.774;2024-03-29T07:45:24;96508.81;;;19.15;40.21
41044;BME280;51680;49.806;18.774;2024-03-29T07:48:26;96516.16;;;19.97;39.90
41044;BME280;51680;49.806;18.774;2024-03-29T07:51:28;96502.13;;;20.48;38.76
41044;BME280;51680;49.806;18.774;2024-03-29T07:54:30;96510.72;;;20.35;37.99
41044;BME280;51680;49.806;18.774;2024-03-29T07:57:31;96520.34;;;20.14;38.01
41044;BME280;51680;49.806;18.774;2024-03-29T08:00:38;96525.69;;;20.80;38.42
41044;BME280;51680;49.806;18.774;2024-03-29T08:03:40;96522.41;;;20.78;37.23
41044;BME280;51680;49.806;18.774;2024-03-29T08:06:42;96526.03;;;20.77;37.95
41044;BME280;51680;49.806;18.774;2024-03-29T08:09:44;96524.59;;;21.32;37.34
41044;BME280;51680;49.806;18.774;2024-03-29T08:12:46;96528.03;;;21.76;37.64
41044;BME280;51680;49.806;18.774;2024-03-29T08:15:56;96532.25;;;21.71;33.57
41044;BME280;51680;49.806;18.774;2024-03-29T08:18:58;96529.97;;;21.53;36.89
41044;BME280;51680;49.806;18.774;2024-03-29T08:22:00;96529.09;;;21.82;36.63
41044;BME280;51680;49.806;18.774;2024-03-29T08:25:02;96525.53;;;21.25;36.37
41044;BME280;51680;49.806;18.774;2024-03-29T08:28:04;96537.66;;;21.77;36.55
41044;BME280;51680;49.806;18.774;2024-03-29T08:31:07;96532.66;;;22.10;35.28
41044;BME280;51680;49.806;18.774;2024-03-29T08:34:09;96542.94;;;22.13;34.48
41044;BME280;51680;49.806;18.774;2024-03-29T08:37:14;96546.09;;;21.37;36.13
41044;BME280;51680;49.806;18.774;2024-03-29T08:40:16;96543.47;;;21.87;36.20
41044;BME280;51680;49.806;18.774;2024-03-29T08:43:18;96543.41;;;21.81;35.65
41044;BME280;51680;49.806;18.774;2024-03-29T08:46:22;96536.69;;;21.35;35.66
41044;BME280;51680;49.806;18.774;2024-03-29T08:49:24;96528.84;;;20.98;37.20
41044;BME280;51680;49.806;18.774;2024-03-29T08:52:26;96530.03;;;20.95;36.92
41044;BME280;51680;49.806;18.774;2024-03-29T08:55:28;96538.38;;;21.07;36.80
41044;BME280;51680;49.806;18.774;2024-03-29T08:58:29;96523.31;;;20.85;36.70
41044;BME280;51680;49.806;18.774;2024-03-29T09:01:33;96534.16;;;20.24;36.11
41044;BME280;51680;49.806;18.774;2024-03-29T09:04:34;96519.59;;;19.52;37.95
41044;BME280;51680;49.806;18.774;2024-03-29T09:07:36;96527.63;;;19.20;38.21
41044;BME280;51680;49.806;18.774;2024-03-29T09:10:39;96526.25;;;19.02;37.85
41044;BME280;51680;49.806;18.774;2024-03-29T09:13:41;96526.22;;;18.47;36.49
41044;BME280;51680;49.806;18.774;2024-03-29T09:16:44;96529.16;;;17.96;38.20
41044;BME280;51680;49.806;18.774;2024-03-29T09:19:49;96530.00;;;18.20;38.91
41044;BME280;51680;49.806;18.774;2024-03-29T09:22:52;96524.00;;;17.62;38.51
41044;BME280;51680;49.806;18.774;2024-03-29T09:25:53;96498.63;;;17.61;38.09
41044;BME280;51680;49.806;18.774;2024-03-29T09:28:56;96493.09;;;17.39;38.77
41044;BME280;51680;49.806;18.774;2024-03-29T09:32:00;96504.69;;;17.62;39.98
41044;BME280;51680;49.806;18.774;2024-03-29T09:35:02;96504.91;;;18.00;40.71
41044;BME280;51680;49.806;18.774;2024-03-29T09:38:04;96505.53;;;18.51;38.91
41044;BME280;51680;49.806;18.774;2024-03-29T09:41:10;96519.28;;;18.38;36.59
41044;BME280;51680;49.806;18.774;2024-03-29T09:44:14;96515.13;;;18.11;36.94
41044;BME280;51680;49.806;18.774;2024-03-29T09:47:19;96502.53;;;18.62;37.88
41044;BME280;51680;49.806;18.774;2024-03-29T09:50:22;96501.69;;;18.77;37.91
41044;BME280;51680;49.806;18.774;2024-03-29T09:53:24;96499.50;;;18.89;36.58
41044;BME280;51680;49.806;18.774;2024-03-29T09:56:26;96502.41;;;18.47;35.05
41044;BME280;51680;49.806;18.774;2024-03-29T09:59:28;96493.56;;;18.87;36.36
41044;BME280;51680;49.806;18.774;2024-03-29T10:02:32;96489.19;;;18.55;34.14
41044;BME280;51680;49.806;18.774;2024-03-29T10:05:35;96500.94;;;17.96;33.56
41044;BME280;51680;49.806;18.774;2024-03-29T10:08:37;96496.97;;;17.92;35.16
41044;BME280;51680;49.806;18.774;2024-03-29T10:11:39;96486.41;;;18.24;36.25
41044;BME280;51680;49.806;18.774;2024-03-29T10:14:45;96482.75;;;18.50;36.37
41044;BME280;51680;49.806;18.774;2024-03-29T10:17:51;96490.59;;;18.82;36.02
41044;BME280;51680;49.806;18.774;2024-03-29T10:21:00;96492.94;;;19.54;35.77
41044;BME280;51680;49.806;18.774;2024-03-29T10:24:11;96491.09;;;19.54;35.68
41044;BME280;51680;49.806;18.774;2024-03-29T10:27:14;96490.00;;;19.49;34.05
41044;BME280;51680;49.806;18.774;2024-03-29T10:30:16;96474.56;;;19.14;35.22
41044;BME280;51680;49.806;18.774;2024-03-29T10:33:27;96466.50;;;18.77;33.57
41044;BME280;51680;49.806;18.774;2024-03-29T10:36:30;96455.91;;;18.77;34.62
41044;BME280;51680;49.806;18.774;2024-03-29T10:39:35;96449.16;;;18.74;35.14
41044;BME280;51680;49.806;18.774;2024-03-29T10:42:38;96449.56;;;18.86;35.48
41044;BME280;51680;49.806;18.774;2024-03-29T10:45:40;96445.47;;;19.14;35.79
41044;BME280;51680;49.806;18.774;2024-03-29T10:48:44;96440.22;;;19.36;33.70
41044;BME280;51680;49.806;18.774;2024-03-29T10:51:46;96435.38;;;19.48;34.92
41044;BME280;51680;49.806;18.774;2024-03-29T10:54:49;96415.50;;;18.91;34.95
41044;BME280;51680;49.806;18.774;2024-03-29T10:57:53;96410.56;;;18.88;34.90
41044;BME280;51680;49.806;18.774;2024-03-29T11:00:57;96412.81;;;18.99;35.82
41044;BME280;51680;49.806;18.774;2024-03-29T11:04:09;96413.94;;;19.04;34.34
41044;BME280;51680;49.806;18.774;2024-03-29T11:07:19;96405.19;;;19.04;35.55
41044;BME280;51680;49.806;18.774;2024-03-29T11:10:25;96399.09;;;18.65;34.73
41044;BME280;51680;49.806;18.774;2024-03-29T11:13:34;96388.84;;;18.62;36.03
41044;BME280;51680;49.806;18.774;2024-03-29T11:16:39;96390.22;;;18.58;36.07
41044;BME280;51680;49.806;18.774;2024-03-29T11:19:47;96389.22;;;18.59;37.24
41044;BME280;51680;49.806;18.774;2024-03-29T11:22:49;96389.13;;;18.36;35.65
41044;BME280;51680;49.806;18.774;2024-03-29T11:25:52;96378.28;;;18.07;36.33
41044;BME280;51680;49.806;18.774;2024-03-29T11:28:55;96362.66;;;17.49;36.00
41044;BME280;51680;49.806;18.774;2024-03-29T11:31:59;96354.44;;;17.44;37.65
41044;BME280;51680;49.806;18.774;2024-03-29T11:35:03;96364.31;;;17.58;37.57
41044;BME280;51680;49.806;18.774;2024-03-29T11:38:05;96365.97;;;17.59;37.94
41044;BME280;51680;49.806;18.774;2024-03-29T11:41:09;96377.50;;;17.90;38.51
41044;BME280;51680;49.806;18.774;2024-03-29T11:44:11;96366.72;;;18.00;38.13
41044;BME280;51680;49.806;18.774;2024-03-29T11:47:15;96384.78;;;17.72;36.97
41044;BME280;51680;49.806;18.774;2024-03-29T11:50:20;96381.09;;;18.05;38.27
41044;BME280;51680;49.806;18.774;2024-03-29T11:53:22;96371.69;;;18.03;38.04
41044;BME280;51680;49.806;18.774;2024-03-29T11:56:24;96377.50;;;17.82;37.35
41044;BME280;51680;49.806;18.774;2024-03-29T11:59:26;96354.69;;;17.89;38.61
41044;BME280;51680;49.806;18.774;2024-03-29T12:02:29;96360.28;;;18.02;39.12
41044;BME280;51680;49.806;18.774;2024-03-29T12:05:32;96365.66;;;18.25;39.37
41044;BME280;51680;49.806;18.774;2024-03-29T12:08:35;96373.41;;;18.42;39.48
41044;BME280;51680;49.806;18.774;2024-03-29T12:11:37;96372.63;;;18.26;39.46
41044;BME280;51680;49.806;18.774;2024-03-29T12:14:39;96358.94;;;18.14;39.42
41044;BME280;51680;49.806;18.774;2024-03-29T12:17:41;96346.41;;;18.08;39.41
41044;BME280;51680;49.806;18.774;2024-03-29T12:20:51;96351.19;;;18.13;40.11
41044;BME280;51680;49.806;18.774;2024-03-29T12:23:54;96355.41;;;18.30;40.01
41044;BME280;51680;49.806;18.774;2024-03-29T12:26:57;96348.63;;;18.44;40.25
41044;BME280;51680;49.806;18.774;2024-03-29T12:29:59;96338.31;;;18.10;40.26
41044;BME280;51680;49.806;18.774;2024-03-29T12:33:02;96339.09;;;18.18;40.70
41044;BME280;51680;49.806;18.774;2024-03-29T12:36:06;96335.66;;;18.10;40.47
41044;BME280;51680;49.806;18.774;2024-03-29T12:39:08;96338.88;;;17.81;40.83
41044;BME280;51680;49.806;18.774;2024-03-29T12:42:10;96342.22;;;17.67;40.75
41044;BME280;51680;49.806;18.774;2024-03-29T12:45:12;96334.50;;;18.12;40.97
41044;BME280;51680;49.806;18.774;2024-03-29T12:48:15;96336.81;;;18.15;40.71
41044;BME280;51680;49.806;18.774;2024-03-29T12:51:19;96342.50;;;17.88;40.70
41044;BME280;51680;49.806;18.774;2024-03-29T12:54:21;96343.75;;;18.08;40.86
41044;BME280;51680;49.806;18.774;2024-03-29T12:57:24;96327.75;;;18.02;40.83
41044;BME280;51680;49.806;18.774;2024-03-29T13:00:26;96345.06;;;18.20;41.26
41044;BME280;51680;49.806;18.774;2024-03-29T13:03:28;96339.72;;;18.37;41.44
41044;BME280;51680;49.806;18.774;2024-03-29T13:06:32;96340.22;;;18.32;40.92
41044;BME280;51680;49.806;18.774;2024-03-29T13:09:34;96338.22;;;18.50;41.56
41044;BME280;51680;49.806;18.774;2024-03-29T13:12:36;96340.03;;;18.42;41.50
41044;BME280;51680;49.806;18.774;2024-03-29T13:15:39;96345.69;;;18.39;41.89
41044;BME280;51680;49.806;18.774;2024-03-29T13:18:42;96346.84;;;18.36;42.15
41044;BME280;51680;49.806;18.774;2024-03-29T13:21:45;96337.38;;;18.50;41.49
41044;BME280;51680;49.806;18.774;2024-03-29T13:24:47;96343.47;;;18.81;41.68
41044;BME280;51680;49.806;18.774;2024-03-29T13:27:50;96338.91;;;18.75;41.77
41044;BME280;51680;49.806;18.774;2024-03-29T13:30:54;96330.81;;;18.68;41.61
41044;BME280;51680;49.806;18.774;2024-03-29T13:33:57;96340.31;;;18.55;40.85
41044;BME280;51680;49.806;18.774;2024-03-29T13:37:05;96325.88;;;18.26;41.68
41044;BME280;51680;49.806;18.774;2024-03-29T13:40:08;96314.63;;;18.41;42.10
41044;BME280;51680;49.806;18.774;2024-03-29T13:43:10;96324.09;;;18.19;42.34
41044;BME280;51680;49.806;18.774;2024-03-29T13:46:12;96332.84;;;18.19;42.55
41044;BME280;51680;49.806;18.774;2024-03-29T13:49:14;96336.44;;;18.26;42.39
41044;BME280;51680;49.806;18.774;2024-03-29T13:52:22;96326.16;;;17.93;42.62
41044;BME280;51680;49.806;18.774;2024-03-29T13:55:24;96327.25;;;18.06;42.98
41044;BME280;51680;49.806;18.774;2024-03-29T13:58:26;96318.03;;;18.02;43.23
41044;BME280;51680;49.806;18.774;2024-03-29T14:01:28;96311.66;;;17.89;43.55
41044;BME280;51680;49.806;18.774;2024-03-29T14:04:30;96305.13;;;18.07;43.40
41044;BME280;51680;49.806;18.774;2024-03-29T14:07:34;96301.84;;;18.05;43.59
41044;BME280;51680;49.806;18.774;2024-03-29T14:10:36;96310.09;;;18.02;43.45
41044;BME280;51680;49.806;18.774;2024-03-29T14:13:38;96312.06;;;18.08;43.58
41044;BME280;51680;49.806;18.774;2024-03-29T14:16:39;96315.38;;;18.02;43.79
41044;BME280;51680;49.806;18.774;2024-03-29T14:19:41;96307.31;;;18.04;43.93
41044;BME280;51680;49.806;18.774;2024-03-29T14:22:44;96303.03;;;18.03;44.29
41044;BME280;51680;49.806;18.774;2024-03-29T14:25:48;96316.88;;;18.05;44.55
41044;BME280;51680;49.806;18.774;2024-03-29T14:28:50;96304.28;;;18.15;44.67
41044;BME280;51680;49.806;18.774;2024-03-29T14:31:52;96320.75;;;17.70;45.03
41044;BME280;51680;49.806;18.774;2024-03-29T14:34:55;96306.53;;;17.87;45.27
41044;BME280;51680;49.806;18.774;2024-03-29T14:38:00;96306.47;;;18.03;45.47
41044;BME280;51680;49.806;18.774;2024-03-29T14:41:02;96304.84;;;17.94;45.74
41044;BME280;51680;49.806;18.774;2024-03-29T14:44:04;96308.78;;;17.98;45.81
41044;BME280;51680;49.806;18.774;2024-03-29T14:47:07;96305.75;;;18.17;45.83
41044;BME280;51680;49.806;18.774;2024-03-29T14:50:10;96307.78;;;17.99;45.92
41044;BME280;51680;49.806;18.774;2024-03-29T14:53:13;96314.44;;;17.87;46.31
41044;BME280;51680;49.806;18.774;2024-03-29T14:56:15;96322.69;;;17.84;46.47
41044;BME280;51680;49.806;18.774;2024-03-29T14:59:17;96326.69;;;17.72;46.91
41044;BME280;51680;49.806;18.774;2024-03-29T15:02:19;96320.94;;;17.53;47.50
41044;BME280;51680;49.806;18.774;2024-03-29T15:05:21;96311.84;;;17.63;47.19
41044;BME280;51680;49.806;18.774;2024-03-29T15:08:25;96333.94;;;17.70;47.84
41044;BME280;51680;49.806;18.774;2024-03-29T15:11:27;96319.13;;;17.45;48.11
41044;BME280;51680;49.806;18.774;2024-03-29T15:14:29;96312.34;;;17.67;47.92
41044;BME280;51680;49.806;18.774;2024-03-29T15:17:32;96305.56;;;17.72;47.98
41044;BME280;51680;49.806;18.774;2024-03-29T15:20:34;96314.81;;;17.68;48.13
41044;BME280;51680;49.806;18.774;2024-03-29T15:23:37;96299.63;;;17.70;48.74
41044;BME280;51680;49.806;18.774;2024-03-29T15:26:39;96304.47;;;17.51;49.24
41044;BME280;51680;49.806;18.774;2024-03-29T15:29:41;96307.56;;;17.54;49.38
41044;BME280;51680;49.806;18.774;2024-03-29T15:32:41;96316.31;;;17.63;49.28
41044;BME280;51680;49.806;18.774;2024-03-29T15:35:43;96297.03;;;17.54;49.57
41044;BME280;51680;49.806;18.774;2024-03-29T15:38:47;96301.28;;;17.63;49.74
41044;BME280;51680;49.806;18.774;2024-03-29T15:41:49;96321.28;;;17.50;49.98
41044;BME280;51680;49.806;18.774;2024-03-29T15:44:51;96315.00;;;17.43;50.29
41044;BME280;51680;49.806;18.774;2024-03-29T15:47:53;96316.00;;;17.50;50.57
41044;BME280;51680;49.806;18.774;2024-03-29T15:50:55;96317.47;;;17.44;50.78
41044;BME280;51680;49.806;18.774;2024-03-29T15:53:58;96320.94;;;17.37;51.46
41044;BME280;51680;49.806;18.774;2024-03-29T15:57:03;96313.69;;;17.39;51.45
41044;BME280;51680;49.806;18.774;2024-03-29T16:00:06;96309.22;;;17.31;52.12